createdAt,value
2023-04-04T00:00:53.945Z,0.00
2023-04-04T00:01:53.932Z,0.00
2023-04-04T00:02:54.005Z,0.00
2023-04-04T00:03:54.269Z,0.00
2023-04-04T00:04:53.887Z,0.00
2023-04-04T00:05:53.869Z,0.00
2023-04-04T00:06:53.864Z,0.00
2023-04-04T00:07:53.849Z,0.00
2023-04-04T00:08:53.857Z,0.00
2023-04-04T00:09:53.830Z,0.00
2023-04-04T00:10:53.821Z,0.00
2023-04-04T00:11:53.806Z,0.00
2023-04-04T00:12:53.815Z,0.00
2023-04-04T00:13:53.807Z,0.00
2023-04-04T00:14:53.793Z,0.00
2023-04-04T00:15:53.780Z,0.00
2023-04-04T00:16:53.878Z,0.00
2023-04-04T00:17:53.839Z,0.00
2023-04-04T00:18:53.735Z,0.00
2023-04-04T00:19:53.718Z,0.00
2023-04-04T00:20:53.709Z,0.00
2023-04-04T00:21:53.718Z,0.00
2023-04-04T00:22:53.694Z,0.00
2023-04-04T00:23:53.673Z,0.00
2023-04-04T00:24:53.663Z,0.00
2023-04-04T00:25:53.660Z,0.00
2023-04-04T00:26:53.681Z,0.00
2023-04-04T00:27:53.633Z,0.00
2023-04-04T00:28:53.624Z,0.00
2023-04-04T00:29:53.637Z,0.00
2023-04-04T00:30:53.613Z,0.00
2023-04-04T00:31:53.662Z,0.00
2023-04-04T00:32:53.655Z,0.00
2023-04-04T00:33:53.654Z,0.00
2023-04-04T00:34:53.566Z,0.00
2023-04-04T00:35:53.610Z,0.00
2023-04-04T00:36:53.559Z,0.00
2023-04-04T00:37:53.529Z,0.00
2023-04-04T00:38:53.522Z,0.00
2023-04-04T00:39:53.503Z,0.00
2023-04-04T00:40:53.496Z,0.00
2023-04-04T00:41:53.505Z,0.00
2023-04-04T00:42:53.480Z,0.00
2023-04-04T00:43:53.476Z,0.00
2023-04-04T00:44:53.455Z,0.00
2023-04-04T00:45:53.475Z,0.00
2023-04-04T00:46:53.463Z,0.00
2023-04-04T00:47:53.488Z,0.00
2023-04-04T00:48:53.439Z,0.00
2023-04-04T00:49:53.420Z,0.00
2023-04-04T00:50:53.396Z,0.00
2023-04-04T00:51:53.403Z,0.00
2023-04-04T00:52:53.393Z,0.00
2023-04-04T00:53:53.369Z,0.00
2023-04-04T00:54:53.353Z,0.00
2023-04-04T00:55:53.329Z,0.00
2023-04-04T00:56:53.326Z,0.00
2023-04-04T00:57:53.335Z,0.00
2023-04-04T00:58:53.377Z,0.00
2023-04-04T00:59:53.287Z,0.00
2023-04-04T01:00:53.298Z,0.00
2023-04-04T01:01:53.267Z,0.00
2023-04-04T01:02:53.306Z,0.00
2023-04-04T01:03:53.259Z,0.00
2023-04-04T01:04:53.257Z,0.00
2023-04-04T01:05:53.244Z,0.00
2023-04-04T01:06:53.222Z,0.00
2023-04-04T01:07:53.204Z,0.00
2023-04-04T01:08:53.219Z,0.00
2023-04-04T01:09:53.179Z,0.00
2023-04-04T01:10:53.170Z,0.00
2023-04-04T01:11:53.173Z,0.00
2023-04-04T01:12:53.155Z,0.00
2023-04-04T01:13:53.157Z,0.00
2023-04-04T01:14:53.129Z,0.00
2023-04-04T01:15:53.112Z,0.00
2023-04-04T01:16:53.213Z,0.00
2023-04-04T01:17:53.118Z,0.00
2023-04-04T01:18:53.104Z,0.00
2023-04-04T01:19:53.071Z,0.00
2023-04-04T01:20:53.066Z,0.00
2023-04-04T01:21:53.068Z,0.00
2023-04-04T01:22:53.079Z,0.00
2023-04-04T01:23:53.051Z,0.00
2023-04-04T01:24:53.016Z,0.00
2023-04-04T01:25:53.008Z,0.00
2023-04-04T01:26:53.032Z,0.00
2023-04-04T01:27:52.980Z,0.00
2023-04-04T01:28:52.983Z,0.00
2023-04-04T01:29:52.962Z,0.00
2023-04-04T01:30:53.050Z,0.00
2023-04-04T01:31:52.939Z,0.00
2023-04-04T01:32:52.976Z,0.00
2023-04-04T01:33:52.924Z,0.00
2023-04-04T01:34:52.909Z,0.00
2023-04-04T01:35:52.952Z,0.00
2023-04-04T01:36:52.892Z,0.00
2023-04-04T01:37:52.907Z,0.00
2023-04-04T01:38:52.908Z,0.00
2023-04-04T01:39:52.868Z,0.00
2023-04-04T01:40:52.847Z,0.00
2023-04-04T01:41:52.841Z,0.00
2023-04-04T01:42:52.838Z,0.00
2023-04-04T01:43:52.829Z,0.00
2023-04-04T01:44:52.833Z,0.00
2023-04-04T01:45:52.862Z,0.00
2023-04-04T01:46:52.789Z,0.00
2023-04-04T01:47:52.830Z,0.00
2023-04-04T01:48:52.762Z,0.00
2023-04-04T01:49:52.743Z,0.00
2023-04-04T01:50:52.758Z,0.00
2023-04-04T01:51:52.763Z,0.00
2023-04-04T01:52:52.733Z,0.00
2023-04-04T01:53:52.726Z,0.00
2023-04-04T01:54:52.723Z,0.00
2023-04-04T01:55:52.683Z,0.00
2023-04-04T01:56:52.678Z,0.00
2023-04-04T01:57:52.666Z,0.00
2023-04-04T01:58:52.688Z,0.00
2023-04-04T01:59:52.639Z,0.00
2023-04-04T02:00:52.655Z,0.00
2023-04-04T02:01:52.918Z,0.00
2023-04-04T02:02:52.649Z,0.00
2023-04-04T02:03:52.796Z,0.00
2023-04-04T02:04:52.597Z,0.00
2023-04-04T02:05:52.598Z,0.00
2023-04-04T02:06:52.611Z,0.00
2023-04-04T02:07:52.555Z,0.00
2023-04-04T02:08:52.569Z,0.00
2023-04-04T02:09:52.551Z,0.00
2023-04-04T02:10:52.548Z,0.00
2023-04-04T02:11:52.521Z,0.00
2023-04-04T02:12:52.507Z,0.00
2023-04-04T02:13:52.488Z,0.00
2023-04-04T02:14:52.481Z,0.00
2023-04-04T02:15:52.561Z,0.00
2023-04-04T02:16:52.456Z,0.00
2023-04-04T02:17:52.481Z,0.00
2023-04-04T02:18:52.440Z,0.00
2023-04-04T02:19:52.434Z,0.00
2023-04-04T02:20:52.414Z,0.00
2023-04-04T02:21:52.425Z,0.00
2023-04-04T02:22:52.393Z,0.00
2023-04-04T02:23:52.397Z,0.00
2023-04-04T02:24:52.372Z,0.00
2023-04-04T02:25:52.399Z,0.00
2023-04-04T02:26:52.351Z,0.00
2023-04-04T02:27:52.342Z,0.00
2023-04-04T02:28:52.373Z,0.00
2023-04-04T02:29:52.313Z,0.00
2023-04-04T02:30:52.330Z,0.00
2023-04-04T02:31:52.320Z,0.00
2023-04-04T02:32:52.297Z,0.00
2023-04-04T02:33:52.267Z,0.00
2023-04-04T02:34:52.261Z,0.00
2023-04-04T02:35:52.268Z,0.00
2023-04-04T02:36:52.289Z,0.00
2023-04-04T02:37:52.221Z,0.00
2023-04-04T02:38:52.238Z,0.00
2023-04-04T02:39:52.203Z,0.00
2023-04-04T02:40:52.202Z,0.00
2023-04-04T02:41:52.207Z,0.00
2023-04-04T02:42:52.186Z,0.00
2023-04-04T02:43:52.183Z,0.00
2023-04-04T02:44:52.165Z,0.00
2023-04-04T02:45:52.146Z,0.00
2023-04-04T02:46:52.186Z,0.00
2023-04-04T02:47:52.144Z,0.00
2023-04-04T02:48:52.238Z,0.00
2023-04-04T02:49:52.105Z,0.00
2023-04-04T02:50:52.118Z,0.00
2023-04-04T02:51:52.084Z,0.00
2023-04-04T02:52:52.067Z,0.00
2023-04-04T02:53:52.066Z,0.00
2023-04-04T02:54:52.043Z,0.00
2023-04-04T02:55:52.097Z,0.00
2023-04-04T02:56:52.027Z,0.00
2023-04-04T02:57:52.073Z,0.00
2023-04-04T02:58:52.016Z,0.00
2023-04-04T02:59:51.999Z,0.00
2023-04-04T03:00:51.998Z,0.00
2023-04-04T03:01:52.056Z,0.00
2023-04-04T03:02:52.078Z,0.00
2023-04-04T03:03:51.994Z,0.00
2023-04-04T03:04:51.950Z,0.00
2023-04-04T03:05:51.934Z,0.00
2023-04-04T03:06:51.942Z,0.00
2023-04-04T03:07:51.912Z,0.00
2023-04-04T03:08:51.901Z,0.00
2023-04-04T03:09:51.892Z,0.00
2023-04-04T03:10:51.883Z,0.00
2023-04-04T03:11:51.893Z,0.00
2023-04-04T03:12:51.862Z,0.00
2023-04-04T03:13:51.872Z,0.00
2023-04-04T03:14:51.841Z,0.00
2023-04-04T03:15:51.829Z,0.00
2023-04-04T03:16:51.877Z,0.00
2023-04-04T03:17:52.079Z,0.00
2023-04-04T03:18:51.800Z,0.00
2023-04-04T03:19:51.790Z,0.00
2023-04-04T03:20:51.775Z,0.00
2023-04-04T03:21:51.788Z,0.00
2023-04-04T03:22:51.769Z,0.00
2023-04-04T03:23:51.745Z,0.00
2023-04-04T03:24:51.725Z,0.00
2023-04-04T03:25:51.720Z,0.00
2023-04-04T03:26:51.731Z,0.00
2023-04-04T03:27:51.699Z,0.00
2023-04-04T03:28:51.688Z,0.00
2023-04-04T03:29:51.741Z,0.00
2023-04-04T03:30:51.657Z,0.00
2023-04-04T03:31:51.674Z,0.00
2023-04-04T03:32:51.661Z,0.00
2023-04-04T03:33:51.630Z,0.00
2023-04-04T03:34:51.615Z,0.00
2023-04-04T03:35:51.624Z,0.00
2023-04-04T03:36:51.618Z,0.00
2023-04-04T03:37:51.587Z,0.00
2023-04-04T03:38:51.573Z,0.00
2023-04-04T03:39:51.565Z,0.00
2023-04-04T03:40:51.574Z,0.00
2023-04-04T03:41:51.542Z,0.00
2023-04-04T03:42:51.551Z,0.00
2023-04-04T03:43:51.520Z,0.00
2023-04-04T03:44:51.509Z,0.00
2023-04-04T03:45:51.546Z,0.00
2023-04-04T03:46:51.487Z,0.00
2023-04-04T03:47:51.533Z,0.00
2023-04-04T03:48:51.464Z,0.00
2023-04-04T03:49:51.459Z,0.00
2023-04-04T03:50:51.452Z,0.00
2023-04-04T03:51:51.466Z,0.00
2023-04-04T03:52:51.426Z,0.00
2023-04-04T03:53:51.413Z,0.00
2023-04-04T03:54:51.389Z,0.00
2023-04-04T03:55:52.027Z,0.00
2023-04-04T03:56:51.397Z,0.00
2023-04-04T03:57:51.390Z,0.00
2023-04-04T03:58:51.376Z,0.00
2023-04-04T03:59:51.348Z,0.00
2023-04-04T04:00:51.336Z,0.00
2023-04-04T04:01:51.376Z,0.00
2023-04-04T04:02:51.383Z,0.00
2023-04-04T04:03:51.340Z,0.00
2023-04-04T04:04:51.294Z,0.00
2023-04-04T04:05:51.278Z,0.00
2023-04-04T04:06:51.286Z,0.00
2023-04-04T04:07:51.258Z,0.00
2023-04-04T04:08:51.268Z,0.00
2023-04-04T04:09:51.240Z,0.00
2023-04-04T04:10:51.235Z,0.00
2023-04-04T04:11:51.218Z,0.00
2023-04-04T04:12:51.209Z,0.00
2023-04-04T04:13:51.214Z,0.00
2023-04-04T04:14:51.182Z,0.00
2023-04-04T04:15:51.224Z,0.00
2023-04-04T04:16:51.178Z,0.00
2023-04-04T04:17:51.220Z,0.00
2023-04-04T04:18:51.139Z,0.00
2023-04-04T04:19:51.132Z,0.00
2023-04-04T04:20:51.120Z,0.00
2023-04-04T04:21:51.127Z,0.00
2023-04-04T04:22:53.868Z,0.00
2023-04-04T04:23:51.098Z,0.00
2023-04-04T04:24:51.079Z,0.00
2023-04-04T04:25:51.088Z,0.00
2023-04-04T04:26:51.056Z,0.00
2023-04-04T04:27:51.049Z,0.00
2023-04-04T04:28:51.044Z,0.00
2023-04-04T04:29:51.107Z,0.00
2023-04-04T04:30:51.005Z,0.00
2023-04-04T04:31:51.045Z,0.00
2023-04-04T04:32:51.016Z,0.00
2023-04-04T04:33:51.007Z,0.00
2023-04-04T04:34:50.975Z,0.00
2023-04-04T04:35:51.050Z,0.00
2023-04-04T04:36:50.945Z,0.00
2023-04-04T04:37:50.935Z,0.00
2023-04-04T04:38:50.933Z,0.00
2023-04-04T04:39:50.950Z,0.00
2023-04-04T04:40:50.935Z,0.00
2023-04-04T04:41:50.915Z,0.00
2023-04-04T04:42:52.005Z,0.00
2023-04-04T04:43:50.878Z,0.00
2023-04-04T04:44:50.891Z,0.00
2023-04-04T04:45:50.867Z,0.00
2023-04-04T04:46:50.857Z,0.00
2023-04-04T04:47:50.863Z,0.00
2023-04-04T04:48:50.871Z,0.00
2023-04-04T04:49:50.899Z,0.00
2023-04-04T04:50:50.827Z,0.00
2023-04-04T04:51:50.802Z,0.00
2023-04-04T04:52:50.839Z,0.00
2023-04-04T04:53:50.770Z,0.00
2023-04-04T04:54:50.764Z,0.00
2023-04-04T04:55:50.770Z,0.00
2023-04-04T04:56:50.737Z,0.00
2023-04-04T04:57:50.724Z,0.00
2023-04-04T04:58:50.738Z,0.00
2023-04-04T04:59:50.718Z,5.62
2023-04-04T05:00:50.728Z,5.62
2023-04-04T05:01:50.754Z,5.62
2023-04-04T05:02:50.792Z,5.62
2023-04-04T05:03:52.804Z,5.62
2023-04-04T05:04:50.647Z,5.62
2023-04-04T05:05:50.685Z,5.62
2023-04-04T05:06:50.635Z,5.62
2023-04-04T05:07:50.645Z,5.62
2023-04-04T05:08:50.622Z,5.62
2023-04-04T05:09:50.593Z,5.62
2023-04-04T05:10:50.602Z,5.62
2023-04-04T05:11:50.594Z,5.62
2023-04-04T05:12:50.585Z,5.62
2023-04-04T05:13:50.552Z,5.62
2023-04-04T05:14:50.546Z,5.62
2023-04-04T05:15:50.551Z,5.62
2023-04-04T05:16:50.626Z,5.62
2023-04-04T05:17:50.573Z,5.62
2023-04-04T05:18:50.508Z,5.62
2023-04-04T05:19:50.538Z,5.62
2023-04-04T05:20:50.474Z,5.62
2023-04-04T05:21:50.518Z,5.62
2023-04-04T05:22:51.647Z,5.62
2023-04-04T05:23:50.446Z,5.62
2023-04-04T05:24:50.433Z,5.62
2023-04-04T05:25:50.418Z,5.62
2023-04-04T05:26:50.411Z,11.25
2023-04-04T05:27:50.442Z,11.25
2023-04-04T05:28:50.411Z,11.25
2023-04-04T05:29:50.379Z,11.25
2023-04-04T05:30:50.371Z,11.25
2023-04-04T05:31:50.428Z,11.25
2023-04-04T05:32:50.453Z,11.25
2023-04-04T05:33:50.370Z,11.25
2023-04-04T05:34:50.322Z,11.25
2023-04-04T05:35:50.442Z,11.25
2023-04-04T05:36:50.305Z,11.25
2023-04-04T05:37:50.319Z,11.25
2023-04-04T05:38:50.308Z,11.25
2023-04-04T05:39:50.277Z,11.25
2023-04-04T05:40:50.260Z,11.25
2023-04-04T05:41:50.253Z,11.25
2023-04-04T05:42:50.243Z,11.25
2023-04-04T05:43:50.254Z,11.25
2023-04-04T05:44:50.226Z,11.25
2023-04-04T05:45:50.233Z,11.25
2023-04-04T05:46:50.199Z,11.25
2023-04-04T05:47:50.229Z,11.25
2023-04-04T05:48:50.217Z,11.25
2023-04-04T05:49:50.168Z,11.25
2023-04-04T05:50:50.157Z,11.25
2023-04-04T05:51:50.173Z,11.25
2023-04-04T05:52:50.140Z,11.25
2023-04-04T05:53:50.173Z,16.88
2023-04-04T05:54:50.121Z,16.88
2023-04-04T05:55:50.107Z,16.88
2023-04-04T05:56:50.090Z,16.88
2023-04-04T05:57:50.104Z,16.88
2023-04-04T05:58:50.089Z,16.88
2023-04-04T05:59:50.086Z,16.88
2023-04-04T06:00:50.047Z,16.88
2023-04-04T06:01:50.045Z,16.88
2023-04-04T06:02:50.215Z,16.88
2023-04-04T06:03:50.115Z,16.88
2023-04-04T06:04:50.003Z,16.88
2023-04-04T06:05:50.047Z,16.88
2023-04-04T06:06:49.999Z,16.88
2023-04-04T06:07:49.997Z,16.88
2023-04-04T06:08:53.524Z,16.88
2023-04-04T06:09:49.972Z,16.88
2023-04-04T06:10:49.941Z,16.88
2023-04-04T06:11:49.969Z,16.88
2023-04-04T06:12:49.922Z,16.88
2023-04-04T06:13:49.921Z,16.88
2023-04-04T06:14:49.903Z,16.88
2023-04-04T06:15:49.926Z,16.88
2023-04-04T06:16:49.904Z,16.88
2023-04-04T06:17:49.953Z,16.88
2023-04-04T06:18:49.858Z,22.50
2023-04-04T06:19:49.866Z,22.50
2023-04-04T06:20:49.832Z,22.50
2023-04-04T06:21:49.846Z,22.50
2023-04-04T06:22:49.818Z,22.50
2023-04-04T06:23:49.831Z,22.50
2023-04-04T06:24:49.792Z,22.50
2023-04-04T06:25:49.802Z,22.50
2023-04-04T06:26:49.792Z,22.50
2023-04-04T06:27:49.766Z,22.50
2023-04-04T06:28:49.780Z,22.50
2023-04-04T06:29:49.743Z,22.50
2023-04-04T06:30:49.729Z,22.50
2023-04-04T06:31:49.790Z,22.50
2023-04-04T06:32:49.737Z,22.50
2023-04-04T06:33:49.696Z,22.50
2023-04-04T06:34:49.695Z,22.50
2023-04-04T06:35:49.692Z,28.12
2023-04-04T06:36:49.692Z,28.12
2023-04-04T06:37:49.660Z,28.12
2023-04-04T06:38:49.635Z,28.12
2023-04-04T06:39:49.639Z,28.12
2023-04-04T06:40:49.625Z,28.12
2023-04-04T06:41:49.638Z,28.12
2023-04-04T06:42:49.635Z,28.12
2023-04-04T06:43:49.582Z,28.12
2023-04-04T06:44:49.578Z,28.12
2023-04-04T06:45:49.566Z,28.12
2023-04-04T06:46:49.637Z,28.12
2023-04-04T06:47:49.633Z,28.12
2023-04-04T06:48:49.528Z,28.12
2023-04-04T06:49:49.528Z,28.12
2023-04-04T06:50:49.506Z,28.12
2023-04-04T06:51:49.503Z,28.12
2023-04-04T06:52:49.521Z,28.12
2023-04-04T06:53:49.479Z,28.12
2023-04-04T06:54:49.487Z,28.12
2023-04-04T06:55:49.481Z,28.12
2023-04-04T06:56:49.443Z,28.12
2023-04-04T06:57:49.455Z,28.12
2023-04-04T06:58:49.437Z,28.12
2023-04-04T06:59:49.420Z,33.75
2023-04-04T07:00:49.465Z,33.75
2023-04-04T07:01:49.451Z,33.75
2023-04-04T07:02:49.392Z,33.75
2023-04-04T07:03:49.367Z,33.75
2023-04-04T07:04:49.381Z,33.75
2023-04-04T07:05:49.420Z,33.75
2023-04-04T07:06:49.341Z,33.75
2023-04-04T07:07:49.359Z,33.75
2023-04-04T07:08:49.411Z,33.75
2023-04-04T07:09:49.337Z,33.75
2023-04-04T07:10:49.302Z,33.75
2023-04-04T07:11:49.342Z,33.75
2023-04-04T07:12:49.321Z,33.75
2023-04-04T07:13:49.296Z,33.75
2023-04-04T07:14:49.375Z,33.75
2023-04-04T07:15:49.273Z,33.75
2023-04-04T07:16:49.392Z,33.75
2023-04-04T07:17:49.290Z,33.75
2023-04-04T07:18:49.212Z,33.75
2023-04-04T07:19:49.196Z,33.75
2023-04-04T07:20:49.198Z,39.38
2023-04-04T07:21:49.198Z,39.38
2023-04-04T07:22:49.188Z,39.38
2023-04-04T07:23:49.155Z,39.38
2023-04-04T07:24:49.158Z,39.38
2023-04-04T07:25:49.136Z,39.38
2023-04-04T07:26:49.149Z,45.00
2023-04-04T07:27:50.422Z,45.00
2023-04-04T07:28:49.113Z,45.00
2023-04-04T07:29:49.109Z,45.00
2023-04-04T07:30:49.083Z,45.00
2023-04-04T07:31:49.162Z,45.00
2023-04-04T07:32:49.201Z,45.00
2023-04-04T07:33:49.045Z,45.00
2023-04-04T07:34:49.042Z,50.62
2023-04-04T07:35:49.037Z,50.62
2023-04-04T07:36:49.011Z,50.62
2023-04-04T07:37:49.031Z,50.62
2023-04-04T07:38:48.999Z,50.62
2023-04-04T07:39:48.981Z,50.62
2023-04-04T07:40:48.966Z,50.62
2023-04-04T07:41:48.953Z,50.62
2023-04-04T07:42:48.971Z,50.62
2023-04-04T07:43:48.933Z,50.62
2023-04-04T07:44:48.929Z,50.62
2023-04-04T07:45:48.945Z,50.62
2023-04-04T07:46:58.692Z,50.62
2023-04-04T07:47:49.935Z,50.62
2023-04-04T07:48:48.892Z,50.62
2023-04-04T07:49:48.881Z,50.62
2023-04-04T07:50:48.864Z,50.62
2023-04-04T07:51:48.849Z,50.62
2023-04-04T07:52:48.863Z,50.62
2023-04-04T07:53:48.824Z,50.62
2023-04-04T07:54:48.846Z,45.00
2023-04-04T07:55:48.806Z,50.62
2023-04-04T07:56:48.826Z,67.50
2023-04-04T07:57:48.798Z,67.50
2023-04-04T07:58:48.787Z,61.88
2023-04-04T07:59:48.763Z,61.88
2023-04-04T08:00:48.748Z,61.88
2023-04-04T08:01:48.760Z,61.88
2023-04-04T08:02:48.820Z,61.88
2023-04-04T08:03:49.077Z,61.88
2023-04-04T08:04:48.743Z,61.88
2023-04-04T08:05:48.726Z,56.25
2023-04-04T08:06:48.683Z,56.25
2023-04-04T08:07:48.701Z,56.25
2023-04-04T08:08:48.666Z,56.25
2023-04-04T08:09:48.652Z,50.62
2023-04-04T08:10:48.667Z,50.62
2023-04-04T08:11:48.631Z,61.88
2023-04-04T08:12:48.619Z,67.50
2023-04-04T08:13:48.610Z,61.88
2023-04-04T08:14:48.606Z,67.50
2023-04-04T08:15:48.614Z,73.12
2023-04-04T08:16:48.584Z,61.88
2023-04-04T08:17:48.791Z,67.50
2023-04-04T08:18:48.559Z,67.50
2023-04-04T08:19:48.542Z,67.50
2023-04-04T08:20:48.535Z,73.12
2023-04-04T08:21:48.518Z,84.38
2023-04-04T08:22:48.539Z,84.38
2023-04-04T08:23:48.497Z,112.50
2023-04-04T08:24:48.491Z,78.75
2023-04-04T08:25:48.496Z,84.38
2023-04-04T08:26:54.688Z,129.38
2023-04-04T08:27:49.490Z,163.12
2023-04-04T08:28:48.443Z,151.88
2023-04-04T08:29:48.429Z,101.25
2023-04-04T08:30:48.426Z,163.12
2023-04-04T08:31:48.505Z,84.38
2023-04-04T08:32:48.416Z,106.88
2023-04-04T08:33:48.474Z,281.25
2023-04-04T08:34:48.387Z,168.75
2023-04-04T08:35:48.428Z,140.62
2023-04-04T08:36:48.358Z,146.25
2023-04-04T08:37:48.343Z,95.62
2023-04-04T08:38:48.341Z,106.88
2023-04-04T08:39:48.320Z,196.88
2023-04-04T08:40:48.336Z,292.50
2023-04-04T08:41:48.310Z,331.88
2023-04-04T08:42:48.311Z,354.38
2023-04-04T08:43:48.295Z,174.38
2023-04-04T08:44:48.266Z,95.62
2023-04-04T08:45:48.277Z,90.00
2023-04-04T08:46:48.317Z,298.12
2023-04-04T08:47:48.299Z,118.12
2023-04-04T08:48:48.228Z,61.88
2023-04-04T08:49:48.284Z,50.62
2023-04-04T08:50:48.204Z,50.62
2023-04-04T08:51:48.197Z,56.25
2023-04-04T08:52:48.183Z,61.88
2023-04-04T08:53:48.169Z,67.50
2023-04-04T08:54:48.198Z,73.12
2023-04-04T08:55:48.174Z,73.12
2023-04-04T08:56:48.153Z,73.12
2023-04-04T08:57:48.152Z,67.50
2023-04-04T08:58:48.175Z,73.12
2023-04-04T08:59:48.210Z,73.12
2023-04-04T09:00:48.149Z,78.75
2023-04-04T09:01:48.085Z,112.50
2023-04-04T09:02:48.106Z,95.62
2023-04-04T09:03:48.272Z,67.50
2023-04-04T09:04:58.272Z,140.62
2023-04-04T09:05:49.087Z,140.62
2023-04-04T09:06:48.241Z,84.38
2023-04-04T09:07:48.042Z,67.50
2023-04-04T09:08:48.021Z,78.75
2023-04-04T09:09:48.014Z,90.00
2023-04-04T09:10:48.031Z,101.25
2023-04-04T09:11:47.984Z,106.88
2023-04-04T09:12:47.976Z,163.12
2023-04-04T09:13:47.955Z,95.62
2023-04-04T09:14:47.954Z,67.50
2023-04-04T09:15:47.965Z,101.25
2023-04-04T09:16:47.944Z,416.25
2023-04-04T09:17:47.920Z,669.38
2023-04-04T09:18:47.908Z,191.25
2023-04-04T09:19:47.892Z,73.12
2023-04-04T09:20:47.906Z,73.12
2023-04-04T09:21:47.895Z,84.38
2023-04-04T09:22:47.863Z,95.62
2023-04-04T09:23:47.876Z,118.12
2023-04-04T09:24:47.843Z,129.38
2023-04-04T09:26:00.340Z,191.25
2023-04-04T09:26:48.820Z,157.50
2023-04-04T09:27:47.796Z,258.75
2023-04-04T09:28:47.821Z,123.75
2023-04-04T09:29:47.777Z,191.25
2023-04-04T09:30:48.031Z,157.50
2023-04-04T09:31:47.764Z,151.88
2023-04-04T09:32:47.763Z,140.62
2023-04-04T09:33:47.736Z,135.00
2023-04-04T09:34:47.732Z,202.50
2023-04-04T09:35:47.778Z,112.50
2023-04-04T09:36:47.722Z,101.25
2023-04-04T09:37:47.710Z,123.75
2023-04-04T09:38:47.683Z,67.50
2023-04-04T09:39:47.665Z,50.62
2023-04-04T09:40:47.748Z,50.62
2023-04-04T09:41:47.664Z,106.88
2023-04-04T09:42:47.647Z,146.25
2023-04-04T09:43:47.837Z,180.00
2023-04-04T09:44:47.629Z,123.75
2023-04-04T09:45:47.817Z,123.75
2023-04-04T09:46:47.596Z,433.12
2023-04-04T09:47:47.614Z,230.62
2023-04-04T09:48:47.604Z,151.88
2023-04-04T09:49:47.560Z,140.62
2023-04-04T09:50:47.556Z,123.75
2023-04-04T09:51:47.544Z,67.50
2023-04-04T09:52:47.530Z,50.62
2023-04-04T09:53:47.579Z,67.50
2023-04-04T09:54:48.449Z,613.12
2023-04-04T09:55:47.497Z,174.38
2023-04-04T09:56:47.489Z,466.88
2023-04-04T09:57:47.473Z,545.62
2023-04-04T09:59:02.528Z,90.00
2023-04-04T09:59:48.510Z,101.25
2023-04-04T10:00:47.442Z,95.62
2023-04-04T10:01:47.485Z,90.00
2023-04-04T10:02:47.461Z,84.38
2023-04-04T10:03:47.455Z,67.50
2023-04-04T10:04:51.088Z,73.12
2023-04-04T10:05:48.383Z,73.12
2023-04-04T10:06:47.381Z,56.25
2023-04-04T10:07:47.400Z,50.62
2023-04-04T10:08:47.436Z,50.62
2023-04-04T10:09:47.356Z,219.38
2023-04-04T10:10:55.741Z,219.38
2023-04-04T10:11:47.322Z,309.38
2023-04-04T10:12:47.315Z,365.62
2023-04-04T10:13:47.321Z,607.50
2023-04-04T10:14:47.296Z,866.25
2023-04-04T10:15:47.302Z,1282.50
2023-04-04T10:16:47.307Z,1209.38
2023-04-04T10:17:47.376Z,1113.75
2023-04-04T10:18:47.253Z,928.12
2023-04-04T10:19:47.236Z,421.88
2023-04-04T10:20:47.231Z,118.12
2023-04-04T10:21:47.235Z,95.62
2023-04-04T10:22:47.205Z,354.38
2023-04-04T10:23:47.225Z,517.50
2023-04-04T10:24:47.187Z,360.00
2023-04-04T10:25:47.215Z,331.88
2023-04-04T10:26:47.164Z,731.25
2023-04-04T10:27:47.142Z,123.75
2023-04-04T10:28:47.157Z,568.12
2023-04-04T10:29:47.125Z,191.25
2023-04-04T10:30:59.421Z,264.38
2023-04-04T10:31:48.141Z,585.00
2023-04-04T10:32:47.121Z,483.75
2023-04-04T10:33:47.102Z,129.38
2023-04-04T10:34:47.066Z,129.38
2023-04-04T10:35:47.095Z,106.88
2023-04-04T10:36:47.050Z,112.50
2023-04-04T10:37:47.043Z,106.88
2023-04-04T10:38:47.051Z,90.00
2023-04-04T10:39:47.008Z,208.12
2023-04-04T10:40:47.040Z,118.12
2023-04-04T10:41:47.612Z,292.50
2023-04-04T10:42:47.405Z,2227.50
2023-04-04T10:43:46.963Z,151.88
2023-04-04T10:44:46.982Z,123.75
2023-04-04T10:45:46.947Z,551.25
2023-04-04T10:46:47.048Z,1327.50
2023-04-04T10:47:46.971Z,2868.75
2023-04-04T10:48:46.916Z,2936.25
2023-04-04T10:49:46.906Z,2576.25
2023-04-04T10:50:46.910Z,2947.50
2023-04-04T10:51:55.777Z,2941.88
2023-04-04T10:52:47.874Z,2559.38
2023-04-04T10:53:46.880Z,2497.50
2023-04-04T10:54:46.844Z,2576.25
2023-04-04T10:55:46.853Z,2486.25
2023-04-04T10:56:46.857Z,1406.25
2023-04-04T10:57:46.915Z,888.75
2023-04-04T10:58:46.849Z,731.25
2023-04-04T10:59:46.786Z,1310.62
2023-04-04T11:00:46.807Z,540.00
2023-04-04T11:01:46.767Z,202.50
2023-04-04T11:02:46.814Z,168.75
2023-04-04T11:03:46.777Z,247.50
2023-04-04T11:04:46.743Z,208.12
2023-04-04T11:05:46.723Z,298.12
2023-04-04T11:06:46.733Z,157.50
2023-04-04T11:07:57.230Z,106.88
2023-04-04T11:08:47.713Z,84.38
2023-04-04T11:09:46.685Z,78.75
2023-04-04T11:10:46.672Z,78.75
2023-04-04T11:11:46.664Z,118.12
2023-04-04T11:12:46.678Z,146.25
2023-04-04T11:13:46.660Z,225.00
2023-04-04T11:14:46.633Z,281.25
2023-04-04T11:15:46.615Z,303.75
2023-04-04T11:16:46.658Z,1018.12
2023-04-04T11:17:46.656Z,388.12
2023-04-04T11:18:46.585Z,196.88
2023-04-04T11:19:46.572Z,815.62
2023-04-04T11:20:46.566Z,1271.25
2023-04-04T11:21:46.551Z,725.62
2023-04-04T11:22:46.567Z,455.62
2023-04-04T11:23:46.537Z,241.88
2023-04-04T11:24:46.520Z,112.50
2023-04-04T11:25:46.513Z,275.62
2023-04-04T11:26:46.501Z,360.00
2023-04-04T11:27:46.564Z,489.38
2023-04-04T11:28:46.510Z,416.25
2023-04-04T11:29:46.508Z,371.25
2023-04-04T11:30:46.453Z,315.00
2023-04-04T11:31:46.492Z,157.50
2023-04-04T11:32:56.082Z,135.00
2023-04-04T11:33:47.445Z,466.88
2023-04-04T11:34:46.410Z,1035.00
2023-04-04T11:35:46.434Z,1130.62
2023-04-04T11:36:46.388Z,933.75
2023-04-04T11:37:46.373Z,826.88
2023-04-04T11:38:46.393Z,697.50
2023-04-04T11:39:46.353Z,393.75
2023-04-04T11:40:46.370Z,669.38
2023-04-04T11:41:46.334Z,675.00
2023-04-04T11:42:46.321Z,202.50
2023-04-04T11:43:46.306Z,213.75
2023-04-04T11:44:46.294Z,298.12
2023-04-04T11:45:46.538Z,973.12
2023-04-04T11:46:46.283Z,348.75
2023-04-04T11:47:46.325Z,196.88
2023-04-04T11:48:46.277Z,303.75
2023-04-04T11:49:46.248Z,151.88
2023-04-04T11:50:46.237Z,112.50
2023-04-04T11:51:46.225Z,78.75
2023-04-04T11:52:46.242Z,61.88
2023-04-04T11:53:46.200Z,50.62
2023-04-04T11:54:46.186Z,56.25
2023-04-04T11:55:46.176Z,67.50
2023-04-04T11:56:46.182Z,84.38
2023-04-04T11:57:46.155Z,95.62
2023-04-04T11:58:46.194Z,264.38
2023-04-04T11:59:46.224Z,1170.00
2023-04-04T12:00:46.128Z,1361.25
2023-04-04T12:01:46.161Z,618.75
2023-04-04T12:02:46.155Z,579.38
2023-04-04T12:03:46.144Z,433.12
2023-04-04T12:04:46.103Z,275.62
2023-04-04T12:05:46.124Z,168.75
2023-04-04T12:06:46.059Z,151.88
2023-04-04T12:07:46.067Z,174.38
2023-04-04T12:08:46.030Z,174.38
2023-04-04T12:09:46.035Z,118.12
2023-04-04T12:10:46.046Z,101.25
2023-04-04T12:11:46.002Z,84.38
2023-04-04T12:12:45.988Z,67.50
2023-04-04T12:13:45.984Z,61.88
2023-04-04T12:14:45.984Z,61.88
2023-04-04T12:15:45.999Z,61.88
2023-04-04T12:16:45.959Z,61.88
2023-04-04T12:17:46.153Z,73.12
2023-04-04T12:18:45.927Z,90.00
2023-04-04T12:19:45.910Z,112.50
2023-04-04T12:20:45.914Z,123.75
2023-04-04T12:21:45.899Z,123.75
2023-04-04T12:22:45.873Z,146.25
2023-04-04T12:23:45.871Z,163.12
2023-04-04T12:24:45.872Z,191.25
2023-04-04T12:25:45.875Z,185.62
2023-04-04T12:26:45.835Z,365.62
2023-04-04T12:27:45.827Z,427.50
2023-04-04T12:28:45.828Z,511.88
2023-04-04T12:29:45.802Z,601.88
2023-04-04T12:30:45.809Z,967.50
2023-04-04T12:31:45.800Z,236.25
2023-04-04T12:32:45.800Z,472.50
2023-04-04T12:33:45.862Z,838.12
2023-04-04T12:34:48.822Z,798.75
2023-04-04T12:35:45.794Z,1029.38
2023-04-04T12:36:45.731Z,1012.50
2023-04-04T12:37:45.710Z,90.00
2023-04-04T12:38:45.693Z,95.62
2023-04-04T12:39:45.703Z,90.00
2023-04-04T12:40:45.674Z,90.00
2023-04-04T12:41:45.663Z,84.38
2023-04-04T12:42:45.653Z,298.12
2023-04-04T12:43:45.647Z,1186.88
2023-04-04T12:44:45.648Z,247.50
2023-04-04T12:45:45.626Z,1226.25
2023-04-04T12:46:47.723Z,1507.50
2023-04-04T12:47:45.627Z,1597.50
2023-04-04T12:48:45.589Z,1614.38
2023-04-04T12:49:45.657Z,1642.50
2023-04-04T12:50:45.588Z,1648.12
2023-04-04T12:51:45.550Z,1243.12
2023-04-04T12:52:46.180Z,1080.00
2023-04-04T12:53:45.542Z,680.62
2023-04-04T12:54:47.019Z,978.75
2023-04-04T12:55:45.514Z,871.88